Time;durP1;ratioP1;P1;durP2;ratioP2;P2;SDS_P1;SDS_P2;PMS_P1;PMS_P2;Temp;Humidity;BMP_temperature;BMP_pressure;BME280_temperature;BME280_humidity;BME280_pressure;Samples;Min_cycle;Max_cycle;Signal;HPM_P1;HPM_P2
2022/09/26 00:02:11;;;;;;;25.70;15.40;;;;;;;8.18;92.61;99025.00;105009;1271;71497;-80
2022/09/26 00:05:01;;;;;;;25.30;15.10;;;;;;;8.23;92.32;99021.44;104923;1271;59754;-80
2022/09/26 00:07:51;;;;;;;25.60;16.00;;;;;;;8.27;91.97;99023.09;104962;1272;60590;-81
2022/09/26 00:10:40;;;;;;;26.40;15.00;;;;;;;8.29;91.93;99020.39;104933;1271;73200;-79
2022/09/26 00:13:32;;;;;;;25.30;15.50;;;;;;;8.31;91.65;99018.61;105123;1271;68131;-78
2022/09/26 00:16:21;;;;;;;26.30;16.10;;;;;;;8.31;91.49;99017.89;106727;1271;71783;-77
2022/09/26 00:19:11;;;;;;;24.80;15.30;;;;;;;8.33;91.41;99016.88;107322;1271;58953;-77
2022/09/26 00:22:01;;;;;;;24.50;14.60;;;;;;;8.36;91.24;99016.45;107336;1271;59633;-78
2022/09/26 00:24:49;;;;;;;23.20;14.00;;;;;;;8.39;90.90;99007.38;105577;1271;73135;-78
2022/09/26 00:27:37;;;;;;;25.60;14.90;;;;;;;8.43;90.42;98998.00;105230;1271;67183;-77
2022/09/26 00:30:25;;;;;;;21.00;13.60;;;;;;;8.46;90.38;98997.05;104919;1274;75544;-78
2022/09/26 00:33:14;;;;;;;22.30;12.60;;;;;;;8.49;90.19;98991.70;105151;1274;59656;-78
2022/09/26 00:36:05;;;;;;;21.90;13.80;;;;;;;8.51;90.18;98989.55;105056;1271;60268;-79
2022/09/26 00:38:54;;;;;;;23.60;14.70;;;;;;;8.54;89.85;98986.14;105038;1271;72049;-81
2022/09/26 00:41:44;;;;;;;22.40;14.70;;;;;;;8.57;89.64;98983.79;105097;1274;68308;-79
2022/09/26 00:44:44;;;;;;;20.20;13.30;;;;;;;8.61;89.57;98986.98;105186;1271;71842;-79
2022/09/26 00:47:48;;;;;;;23.10;14.40;;;;;;;8.63;89.21;98988.23;104990;1274;59532;-77
2022/09/26 00:50:40;;;;;;;22.60;13.80;;;;;;;8.68;89.00;98982.09;105161;1271;61731;-79
2022/09/26 00:53:47;;;;;;;20.20;12.50;;;;;;;8.77;88.79;98983.15;104941;1271;71881;-78
2022/09/26 00:56:38;;;;;;;21.20;12.60;;;;;;;8.83;88.08;98970.56;105301;1271;68438;-78
2022/09/26 00:59:34;;;;;;;20.90;13.50;;;;;;;8.88;87.92;98965.48;104995;1271;74638;-78
2022/09/26 01:02:25;;;;;;;22.70;14.10;;;;;;;8.92;87.64;98963.63;104967;1271;59711;-79
2022/09/26 01:05:18;;;;;;;27.50;14.20;;;;;;;8.93;87.12;98959.05;104978;1271;61011;-77
2022/09/26 01:08:09;;;;;;;23.00;14.40;;;;;;;8.95;87.06;98955.48;105246;1271;74341;-77
2022/09/26 01:10:58;;;;;;;20.30;12.60;;;;;;;8.96;86.94;98955.04;104934;1271;68653;-78
2022/09/26 01:13:49;;;;;;;22.40;13.00;;;;;;;8.98;86.63;98953.48;104930;1271;72502;-79
2022/09/26 01:16:40;;;;;;;22.10;13.20;;;;;;;8.98;86.64;98953.98;105032;1271;59650;-77
2022/09/26 01:19:45;;;;;;;21.30;14.10;;;;;;;8.97;86.70;98949.14;105087;1271;61941;-77
2022/09/26 01:22:49;;;;;;;24.00;15.20;;;;;;;8.96;86.55;98947.27;105243;1271;75054;-78
2022/09/26 01:25:42;;;;;;;24.90;15.30;;;;;;;8.95;86.57;98946.46;105585;1271;68119;-79
2022/09/26 01:29:11;;;;;;;21.60;13.70;;;;;;;8.94;86.72;98942.67;105863;1271;72611;-80
2022/09/26 01:36:09;;;;;;;21.50;12.20;;;;;;;8.96;86.88;98939.14;105143;1271;60444;-77
2022/09/26 01:39:50;;;;;;;22.40;12.80;;;;;;;8.96;86.78;98934.36;104990;1271;73277;-76
2022/09/26 01:43:11;;;;;;;18.60;11.80;;;;;;;8.97;86.98;98936.77;104659;1279;68384;-76
2022/09/26 01:46:10;;;;;;;21.50;12.30;;;;;;;8.98;87.01;98933.65;104428;1279;70684;-75
2022/09/26 01:49:36;;;;;;;21.40;14.00;;;;;;;9.03;86.84;98933.95;104731;1278;59781;-77
2022/09/26 01:52:38;;;;;;;20.50;12.70;;;;;;;9.07;86.51;98928.09;104630;1279;60521;-78
2022/09/26 01:55:47;;;;;;;20.00;12.10;;;;;;;9.10;86.36;98928.36;104556;1279;74770;-76
2022/09/26 01:58:56;;;;;;;21.40;13.60;;;;;;;9.13;86.41;98924.59;104596;1279;69222;-76
2022/09/26 02:01:47;;;;;;;22.50;14.60;;;;;;;9.15;86.50;98920.28;104665;1279;72914;-77
2022/09/26 02:04:42;;;;;;;19.40;12.70;;;;;;;9.17;86.45;98916.20;104620;1279;59816;-77
2022/09/26 02:08:03;;;;;;;21.30;12.80;;;;;;;9.19;86.42;98915.71;104395;1279;60594;-77
2022/09/26 02:11:01;;;;;;;19.40;13.10;;;;;;;9.20;86.12;98913.98;104549;1279;74555;-79
2022/09/26 02:14:14;;;;;;;20.40;11.90;;;;;;;9.20;86.09;98908.83;104463;1279;70248;-78
2022/09/26 02:17:24;;;;;;;21.40;13.40;;;;;;;9.21;86.05;98907.23;104638;1279;73983;-76
2022/09/26 02:20:30;;;;;;;19.20;12.80;;;;;;;9.20;85.83;98906.54;104727;1277;61256;-77
2022/09/26 02:23:19;;;;;;;19.20;12.30;;;;;;;9.19;86.01;98910.91;105009;1277;59635;-77
2022/09/26 02:26:07;;;;;;;21.80;13.10;;;;;;;9.16;85.84;98908.19;104770;1277;75272;-76
2022/09/26 02:28:55;;;;;;;21.10;13.30;;;;;;;9.13;86.20;98901.43;104770;1276;68523;-76
2022/09/26 02:32:26;;;;;;;20.80;13.30;;;;;;;9.08;86.34;98901.86;104473;1280;73637;-77
2022/09/26 02:38:29;;;;;;;24.10;14.60;;;;;;;9.04;86.66;98887.83;105048;1276;61215;-77
2022/09/26 02:41:40;;;;;;;22.20;13.00;;;;;;;9.07;86.48;98887.95;104768;1276;74736;-75
2022/09/26 02:44:49;;;;;;;20.40;13.10;;;;;;;9.07;86.87;98887.39;104777;1277;68582;-76
2022/09/26 02:48:13;;;;;;;24.50;13.70;;;;;;;9.07;86.77;98883.75;104692;1276;72771;-76
2022/09/26 02:51:20;;;;;;;24.30;14.30;;;;;;;9.07;86.73;98883.54;104908;1276;59873;-78
2022/09/26 02:55:24;;;;;;;22.50;12.80;;;;;;;9.07;86.93;98883.13;105199;1274;61004;-76
2022/09/26 02:59:03;;;;;;;23.10;12.50;;;;;;;9.07;86.81;98878.90;104712;1279;71481;-76
2022/09/26 03:02:14;;;;;;;21.60;12.70;;;;;;;9.08;86.56;98874.90;104774;1281;67979;-77
2022/09/26 03:05:14;;;;;;;18.70;12.30;;;;;;;9.08;86.34;98871.91;104689;1280;71693;-77
2022/09/26 03:08:10;;;;;;;20.90;12.30;;;;;;;9.07;85.98;98871.44;104482;1279;59862;-77
2022/09/26 03:11:04;;;;;;;18.80;12.40;;;;;;;9.06;85.88;98870.75;104607;1281;59571;-77
2022/09/26 03:13:55;;;;;;;20.50;12.20;;;;;;;9.04;85.98;98864.13;106766;1281;71949;-77
2022/09/26 03:16:45;;;;;;;22.80;13.30;;;;;;;9.01;86.10;98863.54;106476;1281;68925;-77
2022/09/26 03:20:20;;;;;;;21.80;13.40;;;;;;;8.99;85.89;98862.45;107120;1281;71555;-77
2022/09/26 03:23:10;;;;;;;18.60;11.90;;;;;;;8.99;86.15;98860.13;104448;1287;59705;-75
2022/09/26 03:26:16;;;;;;;20.10;11.80;;;;;;;8.98;86.12;98860.57;103814;1288;62347;-73
2022/09/26 03:29:10;;;;;;;20.90;13.10;;;;;;;8.98;86.34;98854.78;103632;1287;74896;-75
2022/09/26 03:32:00;;;;;;;20.00;13.30;;;;;;;8.97;86.23;98849.54;103605;1288;69576;-77
2022/09/26 03:34:49;;;;;;;21.50;12.80;;;;;;;8.97;86.38;98848.48;103977;1287;72923;-76
2022/09/26 03:37:40;;;;;;;23.30;13.70;;;;;;;8.98;86.20;98842.02;103995;1284;59732;-80
2022/09/26 03:40:29;;;;;;;20.00;12.20;;;;;;;8.99;86.23;98836.97;104295;1284;59628;-80
2022/09/26 03:43:42;;;;;;;20.60;11.80;;;;;;;9.02;86.23;98831.23;104323;1284;72994;-81
2022/09/26 03:46:32;;;;;;;20.80;12.80;;;;;;;9.03;86.12;98821.23;104276;1284;68317;-79
2022/09/26 03:49:28;;;;;;;21.10;13.20;;;;;;;9.04;86.23;98822.41;103892;1287;73494;-81
2022/09/26 03:52:18;;;;;;;19.60;13.50;;;;;;;9.05;86.23;98820.56;103623;1284;1003076;-79
2022/09/26 03:55:08;;;;;;;21.50;14.20;;;;;;;9.05;86.22;98815.59;104073;1284;60918;-80
2022/09/26 03:58:03;;;;;;;21.80;13.60;;;;;;;9.07;86.10;98814.04;104636;1274;75216;-80
2022/09/26 04:01:24;;;;;;;22.70;13.10;;;;;;;9.11;85.93;98814.50;104975;1271;69759;-80
2022/09/26 04:04:15;;;;;;;21.70;12.30;;;;;;;9.17;85.69;98822.14;105370;1279;71565;-77
2022/09/26 04:07:04;;;;;;;20.30;11.80;;;;;;;9.20;85.57;98821.67;104581;1279;59633;-79
2022/09/26 04:09:55;;;;;;;16.30;10.80;;;;;;;9.22;85.14;98819.02;104096;1281;59809;-79
2022/09/26 04:12:51;;;;;;;21.60;13.00;;;;;;;9.22;85.00;98817.90;104236;1281;75358;-79
2022/09/26 04:15:40;;;;;;;18.90;11.80;;;;;;;9.22;84.81;98815.98;104383;1281;69664;-78
2022/09/26 04:18:38;;;;;;;18.00;11.30;;;;;;;9.23;84.62;98816.41;104366;1281;73073;-78
2022/09/26 04:21:34;;;;;;;19.10;12.40;;;;;;;9.24;84.04;98815.45;104480;1281;59679;-79
2022/09/26 04:24:25;;;;;;;18.70;11.20;;;;;;;9.22;84.06;98812.40;104351;1281;59650;-77
2022/09/26 04:27:15;;;;;;;21.20;12.70;;;;;;;9.22;83.96;98808.77;104506;1281;71710;-76
2022/09/26 04:30:06;;;;;;;17.80;11.10;;;;;;;9.18;84.03;98810.67;104358;1281;68093;-74
2022/09/26 04:33:01;;;;;;;20.90;12.50;;;;;;;9.14;84.10;98807.83;104289;1280;72590;-75
2022/09/26 04:35:52;;;;;;;20.10;13.20;;;;;;;9.13;83.88;98802.13;104580;1281;61370;-75
2022/09/26 04:38:40;;;;;;;21.40;12.90;;;;;;;9.13;84.14;98804.20;104233;1281;59672;-76
2022/09/26 04:41:31;;;;;;;20.00;12.80;;;;;;;9.14;84.10;98803.60;104565;1271;73294;-76
2022/09/26 04:44:19;;;;;;;26.20;13.20;;;;;;;9.15;84.31;98804.40;105020;1271;68117;-77
2022/09/26 04:47:07;;;;;;;19.30;12.40;;;;;;;9.16;84.29;98799.34;105329;1274;72790;-76
2022/09/26 04:50:15;;;;;;;24.10;13.80;;;;;;;9.16;84.24;98791.89;104887;1271;59774;-76
2022/09/26 04:53:18;;;;;;;21.20;11.40;;;;;;;9.17;84.41;98792.52;105010;1271;59645;-74
2022/09/26 04:56:36;;;;;;;19.40;13.10;;;;;;;9.21;84.39;98787.05;105484;1271;73263;-77
2022/09/26 04:59:24;;;;;;;23.00;13.10;;;;;;;9.22;84.57;98782.17;105180;1272;65832;-80
2022/09/26 05:02:19;;;;;;;27.00;13.90;;;;;;;9.23;84.32;98780.19;105378;1271;72760;-77
2022/09/26 05:05:08;;;;;;;22.90;13.80;;;;;;;9.24;84.28;98779.48;105062;1271;60009;-76
2022/09/26 05:07:56;;;;;;;21.10;12.50;;;;;;;9.26;84.47;98783.02;105174;1271;60581;-76
2022/09/26 05:10:55;;;;;;;26.40;15.00;;;;;;;9.29;84.88;98779.55;105320;1271;73349;-76
2022/09/26 05:13:44;;;;;;;26.50;15.30;;;;;;;9.32;85.09;98776.42;105064;1271;67770;-76
2022/09/26 05:16:39;;;;;;;25.70;14.80;;;;;;;9.34;85.17;98774.18;105289;1271;72791;-77
2022/09/26 05:19:29;;;;;;;25.30;16.10;;;;;;;9.35;85.38;98777.98;105092;1271;59935;-77
2022/09/26 05:22:44;;;;;;;25.50;15.70;;;;;;;9.36;85.76;98779.10;105185;1271;59706;-77
2022/09/26 05:28:56;;;;;;;27.80;16.10;;;;;;;9.41;86.09;98771.94;105271;1271;68124;-76
2022/09/26 05:31:46;;;;;;;28.10;15.50;;;;;;;9.44;86.68;98768.65;105259;1271;74284;-73
2022/09/26 05:34:34;;;;;;;22.90;14.20;;;;;;;9.47;86.89;98765.88;105105;1271;60444;-76
2022/09/26 05:37:23;;;;;;;22.10;14.80;;;;;;;9.50;86.65;98760.58;105025;1272;59671;-75
2022/09/26 05:43:21;;;;;;;22.50;13.90;;;;;;;9.53;88.45;98759.42;105276;1271;67917;-76
2022/09/26 05:46:11;;;;;;;22.40;15.50;;;;;;;9.49;90.17;98747.98;105271;1271;72694;-79
2022/09/26 05:49:05;;;;;;;25.20;15.50;;;;;;;9.42;92.01;98735.20;105016;1271;60426;-77
2022/09/26 05:51:53;;;;;;;22.10;14.30;;;;;;;9.41;92.51;98742.52;105211;1271;62077;-78
2022/09/26 05:54:42;;;;;;;26.80;16.80;;;;;;;9.40;92.63;98740.35;105185;1271;74893;-79
2022/09/26 05:58:04;;;;;;;26.50;17.20;;;;;;;9.38;92.29;98740.66;105182;1271;67067;-76
2022/09/26 06:01:17;;;;;;;21.00;13.90;;;;;;;9.40;92.06;98740.02;105289;1271;71708;-77
2022/09/26 06:04:05;;;;;;;28.20;16.50;;;;;;;9.39;92.20;98743.77;105226;1271;60125;-77
2022/09/26 06:07:00;;;;;;;30.30;18.70;;;;;;;9.43;91.92;98737.93;105186;1271;59711;-77
2022/09/26 06:09:48;;;;;;;28.60;17.00;;;;;;;9.51;91.48;98741.80;105277;1268;73021;-76
2022/09/26 06:12:51;;;;;;;24.90;17.10;;;;;;;9.66;91.33;98744.06;106929;1271;66994;-78
2022/09/26 06:15:41;;;;;;;27.50;17.50;;;;;;;9.85;90.45;98747.59;105755;1271;71623;-76
2022/09/26 06:18:29;;;;;;;23.50;15.20;;;;;;;10.05;89.31;98744.95;105554;1271;59672;-76
2022/09/26 06:21:19;;;;;;;25.40;17.80;;;;;;;10.23;88.96;98740.61;105625;1271;60862;-79
2022/09/26 06:24:12;;;;;;;23.80;16.00;;;;;;;10.33;88.11;98738.89;105132;1271;75208;-78
2022/09/26 06:27:01;;;;;;;27.30;17.30;;;;;;;10.41;87.64;98736.26;104947;1273;67875;-75
2022/09/26 06:29:51;;;;;;;24.60;16.30;;;;;;;10.46;87.45;98741.93;104941;1274;73663;-76
2022/09/26 06:32:38;;;;;;;24.40;15.20;;;;;;;10.52;87.04;98746.85;104905;1273;59553;-76
2022/09/26 06:36:01;;;;;;;30.20;17.40;;;;;;;10.53;86.55;98750.45;105266;1273;60612;-78
2022/09/26 06:38:56;;;;;;;28.20;15.70;;;;;;;10.51;86.55;98762.23;105165;1273;75082;-77
2022/09/26 06:41:44;;;;;;;23.90;16.80;;;;;;;10.52;86.16;98763.88;105197;1273;69431;-77
2022/09/26 06:44:55;;;;;;;23.80;16.40;;;;;;;10.51;86.41;98769.14;105278;1273;74263;-78
2022/09/26 06:47:45;;;;;;;25.60;16.10;;;;;;;10.53;86.71;98774.36;104984;1273;59794;-78
2022/09/26 06:50:59;;;;;;;24.80;16.90;;;;;;;10.57;86.12;98774.36;104921;1273;59562;-78
2022/09/26 06:53:49;;;;;;;28.90;18.40;;;;;;;10.64;85.91;98768.58;105130;1273;73483;-79
2022/09/26 06:56:40;;;;;;;26.30;17.60;;;;;;;10.83;85.23;98769.21;104949;1273;68232;-77
2022/09/26 06:59:28;;;;;;;25.80;17.10;;;;;;;11.06;84.35;98765.29;104839;1274;72715;-78
2022/09/26 07:02:27;;;;;;;25.50;16.30;;;;;;;11.31;83.82;98765.08;105189;1273;59519;-80
2022/09/26 07:05:34;;;;;;;24.80;15.90;;;;;;;11.60;82.89;98764.30;105377;1274;63362;-77
2022/09/26 07:08:24;;;;;;;24.10;16.90;;;;;;;12.20;81.01;98762.14;104815;1273;73339;-78
2022/09/26 07:11:34;;;;;;;24.30;16.20;;;;;;;13.27;75.45;98754.38;105243;1274;66957;-77
2022/09/26 07:14:42;;;;;;;22.50;15.40;;;;;;;13.12;74.41;98750.95;105196;1273;73425;-77
2022/09/26 07:17:50;;;;;;;23.10;15.40;;;;;;;12.99;74.91;98748.66;105208;1274;59576;-76
2022/09/26 07:20:49;;;;;;;23.00;14.80;;;;;;;12.96;74.84;98748.09;105219;1273;59570;-76
2022/09/26 07:23:56;;;;;;;22.40;15.40;;;;;;;13.68;73.75;98737.16;104994;1274;73574;-75
2022/09/26 07:26:45;;;;;;;22.30;14.40;;;;;;;15.11;68.38;98726.68;105139;1274;66856;-77
2022/09/26 07:29:33;;;;;;;22.40;15.90;;;;;;;15.26;67.63;98729.12;105118;1274;74228;-76
2022/09/26 07:32:24;;;;;;;25.00;15.70;;;;;;;15.20;67.37;98727.21;104769;1276;59698;-76
2022/09/26 07:35:35;;;;;;;22.70;14.20;;;;;;;15.23;67.53;98728.61;105007;1274;59651;-76
2022/09/26 07:38:24;;;;;;;22.10;15.60;;;;;;;15.84;66.69;98728.11;105111;1275;75371;-76
2022/09/26 07:41:13;;;;;;;20.90;14.40;;;;;;;16.66;65.11;98726.30;104749;1275;68070;-79
2022/09/26 07:44:02;;;;;;;20.60;14.50;;;;;;;17.86;61.98;98722.90;104625;1274;73105;-76
2022/09/26 07:50:18;;;;;;;22.00;14.10;;;;;;;20.15;54.22;98718.40;104936;1274;59817;-77
2022/09/26 07:53:40;;;;;;;20.60;13.60;;;;;;;20.30;52.76;98717.08;104879;1274;71715;-76
2022/09/26 07:56:48;;;;;;;24.40;12.70;;;;;;;20.96;50.58;98721.23;104890;1276;66570;-75
2022/09/26 07:59:53;;;;;;;15.20;10.60;;;;;;;20.39;50.21;98723.20;104937;1271;72890;-76
2022/09/26 08:03:03;;;;;;;16.40;12.00;;;;;;;20.67;50.22;98726.48;105905;1273;59872;-75
2022/09/26 08:05:59;;;;;;;16.40;11.30;;;;;;;21.28;48.71;98726.92;105370;1271;60511;-76
2022/09/26 08:08:51;;;;;;;14.30;9.40;;;;;;;21.40;48.06;98730.15;104992;1271;71976;-75
2022/09/26 08:11:59;;;;;;;16.70;11.10;;;;;;;21.28;48.18;98732.80;105034;1274;68095;-76
2022/09/26 08:15:14;;;;;;;15.10;10.70;;;;;;;22.46;45.85;98721.61;104776;1274;72953;-77
2022/09/26 08:18:05;;;;;;;13.40;9.80;;;;;;;22.35;45.73;98720.93;105380;1271;59785;-74
2022/09/26 08:20:53;;;;;;;16.60;10.30;;;;;;;22.89;44.87;98725.40;105196;1271;59703;-75
2022/09/26 08:23:41;;;;;;;12.20;8.90;;;;;;;23.72;43.88;98721.70;105010;1271;71676;-75
2022/09/26 08:26:48;;;;;;;13.00;9.20;;;;;;;24.54;40.91;98718.65;105339;1271;66764;-75
2022/09/26 08:29:48;;;;;;;21.50;10.30;;;;;;;25.20;40.41;98718.01;105120;1271;72674;-74
2022/09/26 08:32:36;;;;;;;11.80;7.60;;;;;;;24.85;39.88;98713.77;105182;1271;59755;-74
2022/09/26 08:35:25;;;;;;;11.60;7.80;;;;;;;24.80;40.06;98715.65;105435;1271;61555;-76
2022/09/26 08:38:34;;;;;;;10.60;7.40;;;;;;;25.23;40.00;98716.38;105140;1271;71820;-74
2022/09/26 08:42:03;;;;;;;10.80;6.80;;;;;;;24.88;38.58;98719.41;105226;1271;66801;-74
2022/09/26 08:49:28;;;;;;;12.10;7.60;;;;;;;25.17;38.93;98721.39;105072;1271;60219;-74
2022/09/26 08:52:38;;;;;;;10.40;6.90;;;;;;;24.46;38.97;98716.67;104988;1271;59574;-74
2022/09/26 08:55:41;;;;;;;9.90;6.10;;;;;;;23.61;40.80;98719.70;105243;1274;72008;-75
2022/09/26 08:58:44;;;;;;;11.50;7.60;;;;;;;23.13;41.75;98722.60;105130;1271;67859;-76
2022/09/26 09:01:38;;;;;;;17.00;12.60;;;;;;;24.04;41.26;98724.95;105049;1271;74280;-76
2022/09/26 09:04:52;;;;;;;10.50;6.60;;;;;;;24.48;38.83;98731.36;104938;1271;60477;-77
2022/09/26 09:07:49;;;;;;;12.90;8.30;;;;;;;24.77;39.17;98733.21;104959;1271;59662;-76
2022/09/26 09:10:55;;;;;;;11.90;6.00;;;;;;;24.68;39.22;98731.27;105798;1271;73231;-76
2022/09/26 09:14:08;;;;;;;10.10;5.80;;;;;;;24.84;38.27;98732.59;105538;1271;68179;-76
2022/09/26 09:17:42;;;;;;;11.80;7.40;;;;;;;24.21;38.81;98729.14;105732;1271;73015;-75
2022/09/26 09:21:11;;;;;;;10.30;6.20;;;;;;;23.46;39.98;98732.13;105637;1271;59663;-75
2022/09/26 09:24:44;;;;;;;10.20;6.20;;;;;;;22.45;41.76;98735.91;105475;1271;62387;-76
2022/09/26 09:27:45;;;;;;;10.00;5.50;;;;;;;22.57;41.74;98738.36;105295;1271;74828;-75
2022/09/26 09:30:57;;;;;;;9.20;4.90;;;;;;;23.05;40.49;98731.60;105224;1271;67958;-75
2022/09/26 09:34:28;;;;;;;11.30;6.10;;;;;;;23.06;40.68;98732.77;105438;1271;72871;-76
2022/09/26 09:37:48;;;;;;;9.40;5.30;;;;;;;24.07;38.89;98728.65;105135;1271;59678;-75
2022/09/26 09:41:16;;;;;;;10.80;6.10;;;;;;;24.82;37.39;98730.97;105251;1271;60597;-76
2022/09/26 09:44:37;;;;;;;9.90;5.50;;;;;;;25.16;37.25;98728.56;105279;1271;72988;-75
2022/09/26 09:47:35;;;;;;;9.90;5.40;;;;;;;25.59;36.17;98735.88;105318;1271;68271;-75
2022/09/26 09:50:42;;;;;;;10.50;6.20;;;;;;;25.46;36.11;98743.23;105403;1271;74512;-75
2022/09/26 09:53:42;;;;;;;11.30;5.90;;;;;;;25.02;37.00;98742.35;105068;1271;59774;-74
2022/09/26 09:57:07;;;;;;;9.50;5.60;;;;;;;24.95;37.27;98744.98;105258;1271;60363;-74
2022/09/26 10:00:15;;;;;;;11.90;5.90;;;;;;;24.75;36.29;98746.83;105204;1271;73097;-75
2022/09/26 10:03:52;;;;;;;8.70;4.70;;;;;;;24.80;35.88;98736.73;105196;1271;69425;-74
2022/09/26 10:06:40;;;;;;;10.10;5.40;;;;;;;25.01;35.15;98734.45;105393;1271;73686;-74
2022/09/26 10:09:40;;;;;;;9.40;4.40;;;;;;;25.25;34.59;98729.19;105823;1271;59742;-75
2022/09/26 10:12:50;;;;;;;10.40;4.40;;;;;;;25.16;34.30;98732.15;105223;1271;61003;-74
2022/09/26 10:16:14;;;;;;;9.50;4.80;;;;;;;24.23;35.11;98736.54;105291;1273;74500;-74
2022/09/26 10:19:12;;;;;;;9.40;5.10;;;;;;;24.09;35.68;98735.27;105458;1271;69052;-76
2022/09/26 10:22:00;;;;;;;10.70;5.10;;;;;;;24.86;35.46;98733.50;105321;1271;73295;-75
2022/09/26 10:24:50;;;;;;;9.20;4.70;;;;;;;25.26;34.77;98728.13;104976;1274;59688;-75
2022/09/26 10:27:47;;;;;;;9.30;4.10;;;;;;;25.25;34.02;98727.17;105058;1271;60314;-74
2022/09/26 10:30:48;;;;;;;8.70;4.00;;;;;;;24.53;34.44;98732.02;105075;1271;74959;-74
2022/09/26 10:33:44;;;;;;;8.90;4.10;;;;;;;23.78;34.42;98731.10;105358;1271;68778;-74
2022/09/26 10:36:41;;;;;;;8.30;4.00;;;;;;;22.63;36.60;98732.27;105497;1271;71580;-74
2022/09/26 10:42:37;;;;;;;8.80;4.40;;;;;;;22.00;39.54;98725.56;105305;1271;60603;-74
2022/09/26 10:45:34;;;;;;;11.30;4.40;;;;;;;22.07;39.51;98721.17;105160;1271;74763;-74
2022/09/26 10:48:55;;;;;;;10.30;4.90;;;;;;;21.31;40.80;98721.44;105546;1271;69545;-74
2022/09/26 10:52:08;;;;;;;9.00;4.40;;;;;;;21.18;41.12;98724.68;105030;1271;73856;-73
2022/09/26 10:55:10;;;;;;;10.20;5.00;;;;;;;20.96;41.56;98724.40;105066;1271;59661;-74
2022/09/26 10:58:04;;;;;;;8.60;4.00;;;;;;;20.48;42.88;98718.54;105136;1271;59554;-74
2022/09/26 11:01:00;;;;;;;9.90;4.40;;;;;;;19.66;44.10;98718.11;105007;1271;72800;-74
2022/09/26 11:03:50;;;;;;;10.80;4.90;;;;;;;19.24;44.98;98716.05;105440;1271;68054;-74
2022/09/26 11:06:43;;;;;;;11.20;4.60;;;;;;;19.09;45.21;98713.83;105107;1271;72903;-76
2022/09/26 11:09:41;;;;;;;10.20;4.80;;;;;;;18.99;45.82;98715.77;104940;1271;59825;-75
2022/09/26 11:13:02;;;;;;;9.20;4.20;;;;;;;18.83;46.53;98715.70;105194;1271;62215;-74
2022/09/26 11:16:00;;;;;;;9.50;3.90;;;;;;;18.30;46.61;98717.61;105332;1271;73878;-73
2022/09/26 11:19:11;;;;;;;10.10;3.80;;;;;;;17.93;47.82;98718.65;105219;1271;66531;-74
2022/09/26 11:22:37;;;;;;;8.90;4.20;;;;;;;17.76;48.40;98723.27;105338;1271;74359;-74
2022/09/26 11:25:41;;;;;;;8.90;4.30;;;;;;;17.58;49.29;98722.34;105091;1271;60297;-75
2022/09/26 11:28:40;;;;;;;10.00;4.50;;;;;;;17.43;49.88;98727.02;105192;1271;62295;-74
2022/09/26 11:31:55;;;;;;;8.80;4.00;;;;;;;17.32;51.01;98723.31;105182;1271;71711;-73
2022/09/26 11:35:01;;;;;;;9.70;3.90;;;;;;;17.22;51.31;98727.48;104978;1271;70016;-74
2022/09/26 11:38:22;;;;;;;10.20;3.90;;;;;;;17.14;51.56;98727.23;105123;1271;73452;-74
2022/09/26 11:41:40;;;;;;;10.10;4.10;;;;;;;16.84;52.41;98725.81;105391;1271;59650;-74
2022/09/26 11:44:56;;;;;;;9.20;4.00;;;;;;;16.70;52.08;98727.67;105058;1271;61052;-73
2022/09/26 11:48:19;;;;;;;9.40;4.00;;;;;;;16.58;52.50;98728.46;105401;1271;73258;-74
2022/09/26 11:52:01;;;;;;;10.20;3.90;;;;;;;16.38;52.97;98726.17;105463;1271;69438;-72
2022/09/26 11:55:14;;;;;;;9.30;3.50;;;;;;;16.30;53.18;98724.20;105313;1271;73197;-74
2022/09/26 11:58:42;;;;;;;10.50;4.10;;;;;;;16.38;53.53;98726.85;105208;1271;59531;-73
2022/09/26 12:02:11;;;;;;;8.30;3.30;;;;;;;16.56;52.92;98727.41;105083;1271;61853;-73
2022/09/26 12:05:26;;;;;;;8.40;3.40;;;;;;;16.82;52.74;98727.95;105363;1271;73731;-74
2022/09/26 12:08:36;;;;;;;7.90;3.40;;;;;;;16.94;52.15;98725.23;105138;1271;66570;-75
2022/09/26 12:11:52;;;;;;;8.90;3.50;;;;;;;16.65;52.63;98722.05;105969;1270;71670;-73
2022/09/26 12:14:43;;;;;;;7.10;3.50;;;;;;;16.60;52.74;98721.55;105709;1271;59561;-71
2022/09/26 12:17:51;;;;;;;7.60;3.30;;;;;;;16.73;52.74;98717.66;107789;1271;60311;-76
2022/09/26 12:20:55;;;;;;;9.00;3.50;;;;;;;17.00;52.50;98718.05;107277;1271;74707;-77
2022/09/26 12:24:00;;;;;;;7.30;3.60;;;;;;;17.24;50.21;98713.05;107474;1271;66711;-79
2022/09/26 12:27:44;;;;;;;7.30;2.80;;;;;;;17.36;48.92;98713.78;106562;1271;71952;-77
2022/09/26 12:31:13;;;;;;;7.70;2.90;;;;;;;17.19;47.33;98720.19;105353;1271;59665;-80
2022/09/26 12:35:08;;;;;;;7.40;2.60;;;;;;;17.28;47.71;98715.67;105309;1271;59656;-74
2022/09/26 12:38:53;;;;;;;7.80;2.70;;;;;;;17.21;47.06;98717.48;105410;1271;73494;-80
2022/09/26 12:42:08;;;;;;;9.50;4.10;;;;;;;17.03;47.91;98719.98;105247;1271;68547;-73
2022/09/26 12:45:16;;;;;;;9.00;3.50;;;;;;;16.92;47.95;98716.91;105474;1271;74441;-75
2022/09/26 12:48:28;;;;;;;8.70;3.30;;;;;;;16.95;48.12;98711.94;105405;1271;59668;-76
2022/09/26 12:51:50;;;;;;;7.40;2.70;;;;;;;17.14;47.89;98701.77;105697;1271;62117;-79
2022/09/26 12:55:01;;;;;;;8.20;2.90;;;;;;;17.24;48.18;98698.06;105642;1271;73472;-74
2022/09/26 12:58:04;;;;;;;7.50;2.90;;;;;;;17.41;47.65;98694.62;105483;1271;69643;-75
2022/09/26 13:01:31;;;;;;;7.60;3.00;;;;;;;17.47;47.46;98697.22;105207;1271;74369;-74
2022/09/26 13:04:42;;;;;;;7.40;3.10;;;;;;;17.41;47.45;98694.28;105145;1271;59684;-76
2022/09/26 13:07:50;;;;;;;7.10;2.40;;;;;;;17.29;46.98;98694.88;105313;1271;60070;-78
2022/09/26 13:10:54;;;;;;;7.40;3.10;;;;;;;17.09;46.79;98693.65;105696;1271;74597;-76
2022/09/26 13:14:37;;;;;;;7.10;2.60;;;;;;;16.90;47.77;98701.59;101412;1271;5324413;-76
2022/09/26 13:17:40;;;;;;;7.90;2.80;;;;;;;16.78;48.94;98701.88;105250;1271;73681;-74
2022/09/26 13:20:57;;;;;;;7.50;3.00;;;;;;;16.73;49.86;98696.34;105459;1271;59782;-79
2022/09/26 13:24:12;;;;;;;7.90;2.90;;;;;;;16.64;48.70;98693.60;105138;1271;59600;-73
2022/09/26 13:28:05;;;;;;;8.00;2.50;;;;;;;16.44;46.81;98694.39;105515;1271;73465;-76
2022/09/26 13:31:03;;;;;;;7.50;2.50;;;;;;;16.40;47.10;98689.78;104715;1279;69313;-79
2022/09/26 13:34:01;;;;;;;6.10;2.10;;;;;;;16.29;46.81;98688.74;104610;1279;73328;-80
2022/09/26 13:36:50;;;;;;;9.40;3.20;;;;;;;16.20;47.25;98695.63;104949;1279;60074;-80
2022/09/26 13:39:52;;;;;;;8.00;2.80;;;;;;;16.09;48.42;98690.63;104856;1279;60517;-79
2022/09/26 13:42:49;;;;;;;9.60;3.60;;;;;;;15.96;49.00;98694.02;104438;1280;71836;-75
2022/09/26 13:45:49;;;;;;;8.10;2.80;;;;;;;15.78;47.65;98698.15;104625;1279;69633;-76
2022/09/26 13:48:59;;;;;;;8.60;2.80;;;;;;;15.68;47.30;98696.11;104767;1279;73291;-77
2022/09/26 13:52:03;;;;;;;7.10;2.70;;;;;;;15.56;47.56;98695.37;104914;1279;59768;-72
2022/09/26 13:55:11;;;;;;;7.60;2.60;;;;;;;15.49;48.11;98695.98;104791;1279;61582;-76
2022/09/26 13:58:17;;;;;;;7.80;3.20;;;;;;;15.43;48.68;98700.14;105272;1279;73673;-79
2022/09/26 14:01:25;;;;;;;9.70;3.20;;;;;;;15.36;49.21;98698.80;104611;1281;67014;-83
2022/09/26 14:04:32;;;;;;;8.10;3.40;;;;;;;15.26;49.60;98698.41;104459;1281;72688;-75
2022/09/26 14:11:28;;;;;;;9.60;3.30;;;;;;;14.97;51.56;98690.44;105487;1271;60070;-77
2022/09/26 14:14:20;;;;;;;8.30;3.80;;;;;;;14.89;52.47;98690.93;105157;1271;70888;-75
2022/09/26 14:17:42;;;;;;;8.60;3.40;;;;;;;14.83;51.81;98687.17;105499;1271;68943;-76
2022/09/26 14:20:49;;;;;;;6.80;2.90;;;;;;;14.77;50.13;98691.80;105271;1271;71690;-76
2022/09/26 14:23:49;;;;;;;9.10;2.80;;;;;;;14.65;49.86;98691.67;105308;1271;59646;-74
2022/09/26 14:26:43;;;;;;;8.50;2.90;;;;;;;14.57;49.82;98691.31;105655;1271;60519;-74
2022/09/26 14:29:37;;;;;;;7.20;2.80;;;;;;;14.53;49.44;98691.98;105363;1271;72471;-74